createdAt,value
2022-11-21T00:04:48.406Z,100544.50
2022-11-21T00:10:10.438Z,100544.97
2022-11-21T00:15:33.434Z,100526.13
2022-11-21T00:20:55.075Z,100524.44
2022-11-21T00:26:17.734Z,100523.84
2022-11-21T00:31:39.447Z,100520.50
2022-11-21T00:37:01.085Z,100511.88
2022-11-21T00:42:22.740Z,100513.78
2022-11-21T00:47:44.410Z,100511.28
2022-11-21T00:53:06.049Z,100517.91
2022-11-21T00:58:28.216Z,100507.09
2022-11-21T01:03:50.044Z,100511.78
2022-11-21T01:09:11.753Z,100508.69
2022-11-21T01:14:33.436Z,100504.22
2022-11-21T01:19:55.092Z,100519.16
2022-11-21T01:25:16.777Z,100499.19
2022-11-21T01:30:38.431Z,100504.13
2022-11-21T01:36:27.694Z,100506.09
2022-11-21T01:41:49.347Z,100508.53
2022-11-21T01:47:11.319Z,100516.84
2022-11-21T01:52:34.144Z,100495.78
2022-11-21T01:57:56.129Z,100506.25
2022-11-21T02:03:24.977Z,100509.03
2022-11-21T02:08:46.775Z,100502.06
2022-11-21T02:14:09.463Z,100491.22
2022-11-21T02:19:40.315Z,100487.66
2022-11-21T02:25:10.216Z,100493.69
2022-11-21T02:30:35.395Z,100493.69
2022-11-21T02:36:01.667Z,100489.00
2022-11-21T02:41:26.881Z,100487.56
2022-11-21T02:46:52.412Z,100498.06
2022-11-21T02:52:14.089Z,100497.19
2022-11-21T02:57:35.815Z,100494.44
2022-11-21T03:02:57.485Z,100501.06
2022-11-21T03:08:19.151Z,100493.03
2022-11-21T03:13:40.793Z,100481.09
2022-11-21T03:19:02.682Z,100476.91
2022-11-21T03:24:24.367Z,100468.03
2022-11-21T03:29:46.095Z,100471.88
2022-11-21T03:35:08.162Z,100474.91
2022-11-21T03:40:29.790Z,100472.13
2022-11-21T03:45:51.545Z,100466.00
2022-11-21T03:51:13.310Z,100471.53
2022-11-21T03:56:35.360Z,100464.34
2022-11-21T04:01:57.034Z,100470.94
2022-11-21T04:07:18.870Z,100479.25
2022-11-21T04:12:40.546Z,100482.28
2022-11-21T04:18:02.292Z,100477.00
2022-11-21T04:23:24.008Z,100478.91
2022-11-21T04:28:45.735Z,100478.91
2022-11-21T04:34:07.391Z,100475.56
2022-11-21T04:39:29.085Z,100473.06
2022-11-21T04:44:50.813Z,100475.81
2022-11-21T04:50:15.335Z,100471.38
2022-11-21T04:55:37.001Z,100457.56
2022-11-21T05:00:58.730Z,100464.44
2022-11-21T05:06:20.483Z,100449.16
2022-11-21T05:12:00.774Z,100451.09
2022-11-21T05:17:23.370Z,100433.66
2022-11-21T05:22:49.962Z,100433.09
2022-11-21T05:28:11.685Z,100417.56
2022-11-21T05:33:33.429Z,100418.66
2022-11-21T05:38:55.078Z,100424.44
2022-11-21T05:44:16.758Z,100426.38
2022-11-21T05:49:38.401Z,100428.25
2022-11-21T05:55:00.060Z,100419.94
2022-11-21T06:00:21.839Z,100413.59
2022-11-21T06:05:43.492Z,100404.47
2022-11-21T06:11:07.021Z,100393.41
2022-11-21T06:16:28.687Z,100387.03
2022-11-21T06:21:50.333Z,100378.72
2022-11-21T06:27:12.031Z,100384.25
2022-11-21T06:32:37.820Z,100385.94
2022-11-21T06:37:59.572Z,100374.06
2022-11-21T06:43:21.246Z,100371.50
2022-11-21T06:48:43.807Z,100363.22
2022-11-21T06:54:05.494Z,100365.97
2022-11-21T06:59:27.148Z,100358.78
2022-11-21T07:04:48.815Z,100347.72
2022-11-21T07:10:10.752Z,100352.09
2022-11-21T07:15:33.708Z,100349.88
2022-11-21T07:21:04.550Z,100343.53
2022-11-21T07:26:26.217Z,100333.69
2022-11-21T07:31:47.927Z,100334.75
2022-11-21T07:37:09.636Z,100338.59
2022-11-21T07:42:35.661Z,100330.16
2022-11-21T07:48:01.626Z,100330.97
2022-11-21T07:53:24.251Z,100331.81
2022-11-21T07:58:45.954Z,100320.63
2022-11-21T08:04:07.631Z,100316.03
2022-11-21T08:09:29.882Z,100308.66
2022-11-21T08:14:51.712Z,100310.75
2022-11-21T08:20:13.549Z,100304.53
2022-11-21T08:25:37.507Z,100299.44
2022-11-21T08:30:59.190Z,100280.25
2022-11-21T08:36:20.931Z,100279.28
2022-11-21T08:42:01.211Z,100267.03
2022-11-21T08:47:22.968Z,100254.78
2022-11-21T08:52:44.668Z,100243.06
2022-11-21T08:58:06.326Z,100228.31
2022-11-21T09:03:31.057Z,100242.41
2022-11-21T09:08:53.373Z,100242.38
2022-11-21T09:14:53.720Z,100237.88
2022-11-21T09:20:15.542Z,100231.19
2022-11-21T09:25:37.444Z,100235.06
2022-11-21T09:30:59.309Z,100222.81
2022-11-21T09:36:21.077Z,100216.72
2022-11-21T09:42:20.114Z,100211.44
2022-11-21T09:47:45.584Z,100218.91
2022-11-21T09:53:15.081Z,100210.59
2022-11-21T09:58:56.191Z,100192.97
2022-11-21T10:04:17.911Z,100188.69
2022-11-21T10:09:51.999Z,100188.03
2022-11-21T10:15:25.487Z,100176.56
2022-11-21T10:20:56.120Z,100152.22
2022-11-21T10:26:42.276Z,100138.94
2022-11-21T10:32:39.352Z,100134.25
2022-11-21T10:38:03.549Z,100118.16
2022-11-21T10:43:49.508Z,100110.63
2022-11-21T10:49:14.364Z,100097.88
2022-11-21T10:55:05.045Z,100093.69
2022-11-21T11:00:27.641Z,100095.31
2022-11-21T11:05:58.559Z,100070.84
2022-11-21T11:11:25.777Z,100055.56
2022-11-21T11:16:47.927Z,100030.06
2022-11-21T11:22:28.025Z,100012.63
2022-11-21T11:27:49.895Z,99996.59
2022-11-21T11:33:33.299Z,100000.50
2022-11-21T11:38:59.875Z,99988.03
2022-11-21T11:44:51.073Z,99979.44
2022-11-21T11:50:21.476Z,99964.44
2022-11-21T11:55:54.628Z,99947.81
2022-11-21T12:01:31.829Z,99926.44
2022-11-21T12:07:41.589Z,99907.28
2022-11-21T12:12:51.287Z,99887.31
2022-11-21T12:18:15.945Z,99889.50
2022-11-21T12:23:37.538Z,99854.00
2022-11-21T12:29:17.732Z,99856.19
2022-11-21T12:34:59.691Z,99844.00
2022-11-21T12:40:27.146Z,99848.72
2022-11-21T12:45:57.809Z,99842.31
2022-11-21T12:51:56.299Z,99824.88
2022-11-21T12:57:20.028Z,99802.16
2022-11-21T13:02:59.769Z,99778.06
2022-11-21T13:08:36.806Z,99757.00
2022-11-21T13:14:09.888Z,99740.34
2022-11-21T13:20:06.815Z,99719.59
2022-11-21T13:25:43.533Z,99705.44
2022-11-21T13:31:29.416Z,99696.59
2022-11-21T13:36:51.084Z,99680.22
2022-11-21T13:42:32.319Z,99679.66
2022-11-21T13:48:05.700Z,99671.63
2022-11-21T13:53:58.257Z,99666.63
2022-11-21T13:59:45.388Z,99651.34
2022-11-21T14:05:25.153Z,99642.13
2022-11-21T14:10:48.776Z,99635.31
2022-11-21T14:16:21.869Z,99608.84
2022-11-21T14:21:46.563Z,99594.06
2022-11-21T14:27:19.364Z,99579.31
2022-11-21T14:32:41.689Z,99565.50
2022-11-21T14:38:06.120Z,99546.34
2022-11-21T14:43:31.775Z,99549.41
2022-11-21T14:48:53.977Z,99510.03
2022-11-21T14:54:28.606Z,99490.41
2022-11-21T14:59:51.596Z,99494.38
2022-11-21T15:05:24.915Z,99476.97
2022-11-21T15:11:00.949Z,99482.28
2022-11-21T15:16:24.263Z,99488.44
2022-11-21T15:21:46.514Z,99470.47
2022-11-21T15:27:30.200Z,99476.88
2022-11-21T15:33:01.751Z,99463.91
2022-11-21T15:38:27.818Z,99461.47
2022-11-21T15:43:52.120Z,99449.03
2022-11-21T15:49:32.019Z,99434.06
2022-11-21T15:54:54.825Z,99438.25
2022-11-21T16:00:17.550Z,99427.47
2022-11-21T16:05:39.251Z,99407.78
2022-11-21T16:11:01.172Z,99394.78
2022-11-21T16:16:25.288Z,99377.66
2022-11-21T16:21:46.971Z,99368.78
2022-11-21T16:27:08.640Z,99356.91
2022-11-21T16:32:30.369Z,99344.16
2022-11-21T16:37:54.110Z,99333.91
2022-11-21T16:43:15.768Z,99316.16
2022-11-21T16:48:37.490Z,99310.94
2022-11-21T16:54:03.077Z,99304.84
2022-11-21T16:59:29.134Z,99291.28
2022-11-21T17:04:52.359Z,99283.78
2022-11-21T17:10:15.052Z,99273.25
2022-11-21T17:15:36.723Z,99271.56
2022-11-21T17:20:58.781Z,99268.16
2022-11-21T17:26:26.009Z,99245.03
2022-11-21T17:31:50.427Z,99240.75
2022-11-21T17:37:12.155Z,99241.28
2022-11-21T17:42:34.104Z,99231.53
2022-11-21T17:47:55.796Z,99213.53
2022-11-21T17:53:17.444Z,99213.31
2022-11-21T17:58:39.512Z,99197.81
2022-11-21T18:04:03.883Z,99194.50
2022-11-21T18:09:25.584Z,99185.63
2022-11-21T18:14:50.254Z,99178.75
2022-11-21T18:20:12.021Z,99174.06
2022-11-21T18:25:37.602Z,99160.53
2022-11-21T18:31:12.164Z,99150.03
2022-11-21T18:36:34.086Z,99147.25
2022-11-21T18:41:55.793Z,99142.28
2022-11-21T18:47:20.827Z,99139.25
2022-11-21T18:52:46.543Z,99132.94
2022-11-21T18:58:08.631Z,99114.69
2022-11-21T19:03:30.832Z,99129.09
2022-11-21T19:08:54.075Z,99099.47
2022-11-21T19:14:16.152Z,99096.53
2022-11-21T19:19:37.875Z,99097.22
2022-11-21T19:24:59.643Z,99087.88
2022-11-21T19:30:21.647Z,99072.22
2022-11-21T19:35:44.428Z,99057.06
2022-11-21T19:41:14.252Z,99040.28
2022-11-21T19:46:39.076Z,99042.34
2022-11-21T19:52:00.813Z,99039.94
2022-11-21T19:57:22.642Z,99037.53
2022-11-21T20:02:44.293Z,99038.75
2022-11-21T20:08:16.444Z,99027.66
2022-11-21T20:13:40.787Z,99029.69
2022-11-21T20:19:06.840Z,99018.06
2022-11-21T20:24:28.757Z,99021.97
2022-11-21T20:29:50.900Z,99016.72
2022-11-21T20:35:15.221Z,99003.41
2022-11-21T20:40:36.941Z,98998.00
2022-11-21T20:46:09.756Z,98990.69
2022-11-21T20:53:06.251Z,98979.06
2022-11-21T20:57:15.477Z,98976.38
2022-11-21T21:02:37.343Z,98980.38
2022-11-21T21:07:59.156Z,98976.34
2022-11-21T21:13:20.878Z,98989.47
2022-11-21T21:18:49.181Z,98994.03
2022-11-21T21:24:15.156Z,98999.75
2022-11-21T21:29:36.811Z,98995.44
2022-11-21T21:34:58.495Z,99002.69
2022-11-21T21:40:20.185Z,98997.22
2022-11-21T21:45:41.902Z,98998.66
2022-11-21T21:51:04.674Z,99000.09
2022-11-21T21:56:28.175Z,99001.00
2022-11-21T22:01:49.852Z,99000.53
2022-11-21T22:07:11.662Z,99001.22
2022-11-21T22:12:33.359Z,99006.06
2022-11-21T22:17:55.071Z,98999.75
2022-11-21T22:23:16.929Z,98987.38
2022-11-21T22:28:39.693Z,98997.41
2022-11-21T22:34:02.101Z,98998.56
2022-11-21T22:39:23.771Z,98998.34
2022-11-21T22:44:45.467Z,99000.34
2022-11-21T22:50:08.132Z,98989.84
2022-11-21T22:55:29.798Z,99000.72
2022-11-21T23:00:51.643Z,99011.56
2022-11-21T23:06:18.472Z,99019.34
2022-11-21T23:11:41.145Z,99004.41
2022-11-21T23:17:02.895Z,98997.53
2022-11-21T23:22:25.200Z,99012.81
2022-11-21T23:27:46.854Z,98999.00
2022-11-21T23:33:08.683Z,98992.94
2022-11-21T23:38:30.534Z,99012.63
2022-11-21T23:43:52.229Z,99024.28
2022-11-21T23:49:13.904Z,99022.94
2022-11-21T23:54:35.573Z,99024.63
2022-11-21T23:59:57.497Z,99026.84
